createdAt,value
2017-05-18T00:02:09.897Z,22.20
2017-05-18T00:04:36.575Z,22.10
2017-05-18T00:07:03.266Z,22.10
2017-05-18T00:09:29.991Z,22.10
2017-05-18T00:11:56.732Z,22.10
2017-05-18T00:14:23.405Z,22.10
2017-05-18T00:16:50.115Z,22.00
2017-05-18T00:19:16.806Z,21.90
2017-05-18T00:21:43.515Z,21.90
2017-05-18T00:24:10.275Z,21.80
2017-05-18T00:26:36.985Z,21.80
2017-05-18T00:29:03.668Z,21.80
2017-05-18T00:31:31.092Z,21.70
2017-05-18T00:33:57.773Z,21.70
2017-05-18T00:36:24.468Z,21.60
2017-05-18T00:38:52.001Z,21.50
2017-05-18T00:41:18.694Z,21.40
2017-05-18T00:43:45.360Z,21.40
2017-05-18T00:46:12.046Z,21.40
2017-05-18T00:48:38.742Z,21.40
2017-05-18T00:51:05.394Z,21.40
2017-05-18T00:53:32.048Z,21.40
2017-05-18T00:55:58.734Z,21.40
2017-05-18T00:58:25.457Z,21.40
2017-05-18T01:00:52.165Z,21.40
2017-05-18T01:03:18.851Z,21.40
2017-05-18T01:05:45.530Z,21.40
2017-05-18T01:08:12.222Z,21.40
2017-05-18T01:10:38.900Z,21.40
2017-05-18T01:13:05.692Z,21.40
2017-05-18T01:15:32.430Z,21.40
2017-05-18T01:17:59.847Z,21.40
2017-05-18T01:20:26.547Z,21.40
2017-05-18T01:22:53.266Z,21.40
2017-05-18T01:25:19.930Z,21.30
2017-05-18T01:27:46.613Z,21.30
2017-05-18T01:30:13.304Z,21.30
2017-05-18T01:32:40.028Z,21.30
2017-05-18T01:35:06.779Z,21.20
2017-05-18T01:37:33.457Z,21.20
2017-05-18T01:40:00.160Z,21.10
2017-05-18T01:42:26.911Z,21.10
2017-05-18T01:44:54.646Z,21.10
2017-05-18T01:47:21.376Z,21.00
2017-05-18T01:49:48.840Z,20.90
2017-05-18T01:52:15.527Z,20.90
2017-05-18T01:54:42.227Z,20.90
2017-05-18T01:57:08.942Z,20.80
2017-05-18T01:59:35.633Z,20.80
2017-05-18T02:02:02.375Z,20.80
2017-05-18T02:04:29.103Z,20.70
2017-05-18T02:06:55.799Z,20.70
2017-05-18T02:09:22.501Z,20.70
2017-05-18T02:11:49.226Z,20.70
2017-05-18T02:14:15.870Z,20.70
2017-05-18T02:16:42.536Z,20.60
2017-05-18T02:19:09.230Z,20.60
2017-05-18T02:21:35.985Z,20.60
2017-05-18T02:24:02.711Z,20.60
2017-05-18T02:26:29.369Z,20.50
2017-05-18T02:28:56.084Z,20.50
2017-05-18T02:31:22.760Z,20.40
2017-05-18T02:33:49.487Z,20.40
2017-05-18T02:36:16.164Z,20.40
2017-05-18T02:38:42.839Z,20.40
2017-05-18T02:41:09.517Z,20.30
2017-05-18T02:43:36.223Z,20.30
2017-05-18T02:46:02.900Z,20.30
2017-05-18T02:48:29.605Z,20.30
2017-05-18T02:50:57.077Z,20.30
2017-05-18T02:53:23.795Z,20.30
2017-05-18T02:55:50.438Z,20.30
2017-05-18T02:58:17.164Z,20.30
2017-05-18T03:00:43.841Z,20.20
2017-05-18T03:03:10.543Z,20.20
2017-05-18T03:05:37.205Z,20.20
2017-05-18T03:08:03.851Z,20.20
2017-05-18T03:10:30.648Z,20.10
2017-05-18T03:12:57.316Z,20.10
2017-05-18T03:15:24.023Z,20.10
2017-05-18T03:17:50.695Z,20.00
2017-05-18T03:20:17.355Z,20.00
2017-05-18T03:22:44.043Z,20.00
2017-05-18T03:25:10.711Z,20.00
2017-05-18T03:27:37.396Z,20.00
2017-05-18T03:30:04.076Z,20.00
2017-05-18T03:32:30.744Z,20.00
2017-05-18T03:34:57.428Z,20.00
2017-05-18T03:37:24.090Z,19.90
2017-05-18T03:39:50.767Z,19.90
2017-05-18T03:42:18.190Z,19.90
2017-05-18T03:44:44.865Z,19.90
2017-05-18T03:47:12.311Z,19.80
2017-05-18T03:49:39.010Z,19.80
2017-05-18T03:52:05.683Z,19.80
2017-05-18T03:54:32.359Z,19.80
2017-05-18T03:56:59.031Z,19.80
2017-05-18T03:59:25.739Z,19.80
2017-05-18T04:01:52.412Z,19.80
2017-05-18T04:04:19.127Z,19.80
2017-05-18T04:06:45.883Z,19.70
2017-05-18T04:09:12.583Z,19.70
2017-05-18T04:11:39.272Z,19.70
2017-05-18T04:14:05.967Z,19.70
2017-05-18T04:16:32.668Z,19.70
2017-05-18T04:18:59.329Z,19.70
2017-05-18T04:21:26.736Z,19.70
2017-05-18T04:23:53.442Z,19.80
2017-05-18T04:26:20.499Z,19.80
2017-05-18T04:28:47.224Z,19.80
2017-05-18T04:31:13.880Z,19.80
2017-05-18T04:33:40.610Z,19.80
2017-05-18T04:36:07.308Z,19.80
2017-05-18T04:38:34.772Z,19.80
2017-05-18T04:41:01.447Z,19.80
2017-05-18T04:43:28.145Z,19.90
2017-05-18T04:45:54.837Z,20.00
2017-05-18T04:48:21.528Z,20.00
2017-05-18T04:50:48.794Z,20.10
2017-05-18T04:53:15.497Z,20.10
2017-05-18T04:55:42.177Z,20.10
2017-05-18T04:58:08.894Z,20.20
2017-05-18T05:00:35.688Z,20.20
2017-05-18T05:03:02.407Z,20.20
2017-05-18T05:05:29.074Z,20.20
2017-05-18T05:07:55.768Z,20.20
2017-05-18T05:10:22.440Z,20.20
2017-05-18T05:12:49.205Z,20.20
2017-05-18T05:15:15.944Z,20.20
2017-05-18T05:17:42.604Z,20.20
2017-05-18T05:20:10.059Z,20.30
2017-05-18T05:22:37.499Z,20.30
2017-05-18T05:25:04.207Z,20.40
2017-05-18T05:27:30.873Z,20.40
2017-05-18T05:29:57.616Z,20.40
2017-05-18T05:32:24.314Z,20.40
2017-05-18T05:34:51.024Z,20.50
2017-05-18T05:37:17.695Z,20.60
2017-05-18T05:39:44.426Z,20.70
2017-05-18T05:42:11.155Z,20.70
2017-05-18T05:44:37.825Z,20.80
2017-05-18T05:47:04.532Z,20.80
2017-05-18T05:49:31.219Z,20.90
2017-05-18T05:51:57.896Z,20.90
2017-05-18T05:54:24.576Z,21.00
2017-05-18T05:56:51.654Z,20.90
2017-05-18T05:59:18.333Z,21.00
2017-05-18T06:01:45.012Z,21.00
2017-05-18T06:04:11.679Z,21.10
2017-05-18T06:06:39.121Z,21.10
2017-05-18T06:09:06.546Z,21.10
2017-05-18T06:11:33.275Z,21.20
2017-05-18T06:13:59.984Z,21.30
2017-05-18T06:16:26.659Z,21.40
2017-05-18T06:18:53.389Z,21.40
2017-05-18T06:21:20.120Z,21.50
2017-05-18T06:23:46.791Z,21.60
2017-05-18T06:26:13.492Z,21.70
2017-05-18T06:28:40.200Z,21.70
2017-05-18T06:31:06.888Z,21.80
2017-05-18T06:33:33.593Z,21.80
2017-05-18T06:36:00.280Z,21.90
2017-05-18T06:38:27.003Z,22.00
2017-05-18T06:40:54.674Z,22.10
2017-05-18T06:43:21.908Z,22.10
2017-05-18T06:45:48.629Z,22.20
2017-05-18T06:48:15.316Z,22.20
2017-05-18T06:50:42.026Z,22.20
2017-05-18T06:53:08.739Z,22.20
2017-05-18T06:55:35.553Z,22.30
2017-05-18T06:58:02.324Z,22.30
2017-05-18T07:00:29.046Z,22.30
2017-05-18T07:02:56.460Z,22.40
2017-05-18T07:05:23.181Z,22.40
2017-05-18T07:07:49.903Z,22.40
2017-05-18T07:10:16.590Z,22.40
2017-05-18T07:12:43.310Z,22.50
2017-05-18T07:15:09.980Z,22.50
2017-05-18T07:17:36.671Z,22.60
2017-05-18T07:20:03.529Z,22.70
2017-05-18T07:22:30.268Z,22.70
2017-05-18T07:24:56.999Z,22.80
2017-05-18T07:27:24.652Z,22.90
2017-05-18T07:29:51.392Z,22.90
2017-05-18T07:32:18.039Z,23.00
2017-05-18T07:34:44.728Z,23.10
2017-05-18T07:37:11.388Z,23.20
2017-05-18T07:39:38.102Z,23.30
2017-05-18T07:42:04.779Z,23.40
2017-05-18T07:44:31.519Z,23.60
2017-05-18T07:46:58.284Z,23.80
2017-05-18T07:49:25.005Z,23.90
2017-05-18T07:51:51.696Z,24.10
2017-05-18T07:54:18.417Z,24.20
2017-05-18T07:56:45.807Z,24.30
2017-05-18T07:59:12.503Z,24.40
2017-05-18T08:01:39.277Z,24.50
2017-05-18T08:04:05.976Z,24.70
2017-05-18T08:06:34.166Z,24.80
2017-05-18T08:09:02.971Z,24.80
2017-05-18T08:11:29.672Z,24.90
2017-05-18T08:13:56.383Z,25.00
2017-05-18T08:16:23.152Z,25.10
2017-05-18T08:18:49.879Z,25.10
2017-05-18T08:21:16.952Z,25.00
2017-05-18T08:23:44.677Z,24.90
2017-05-18T08:26:11.393Z,24.80
2017-05-18T08:28:38.109Z,24.70
2017-05-18T08:31:05.811Z,24.60
2017-05-18T08:33:33.262Z,24.60
2017-05-18T08:35:59.933Z,24.50
2017-05-18T08:38:27.026Z,24.60
2017-05-18T08:40:53.734Z,24.60
2017-05-18T08:43:20.961Z,24.70
2017-05-18T08:45:47.660Z,24.80
2017-05-18T08:48:14.365Z,24.90
2017-05-18T08:50:41.707Z,24.90
2017-05-18T08:53:08.429Z,25.00
2017-05-18T08:55:35.142Z,25.10
2017-05-18T08:58:01.827Z,25.30
2017-05-18T09:00:28.533Z,25.50
2017-05-18T09:02:55.267Z,25.60
2017-05-18T09:05:21.947Z,25.70
2017-05-18T09:07:49.392Z,25.70
2017-05-18T09:10:16.430Z,25.80
2017-05-18T09:12:43.115Z,26.00
2017-05-18T09:15:09.811Z,26.20
2017-05-18T09:17:36.495Z,26.40
2017-05-18T09:20:03.161Z,26.50
2017-05-18T09:22:29.831Z,26.60
2017-05-18T09:24:56.528Z,26.60
2017-05-18T09:27:23.273Z,26.70
2017-05-18T09:29:49.944Z,26.70
2017-05-18T09:32:16.648Z,26.80
2017-05-18T09:34:43.373Z,26.90
2017-05-18T09:37:10.084Z,26.90
2017-05-18T09:39:36.777Z,26.80
2017-05-18T09:42:03.480Z,26.80
2017-05-18T09:44:30.169Z,26.70
2017-05-18T09:46:56.880Z,26.80
2017-05-18T09:49:23.539Z,26.70
2017-05-18T09:51:50.277Z,26.60
2017-05-18T09:54:17.014Z,26.60
2017-05-18T09:56:43.735Z,26.50
2017-05-18T09:59:10.402Z,26.50
2017-05-18T10:01:37.123Z,26.40
2017-05-18T10:04:03.808Z,26.30
2017-05-18T10:06:30.476Z,26.20
2017-05-18T10:08:57.132Z,26.20
2017-05-18T10:11:23.805Z,26.10
2017-05-18T10:13:50.480Z,26.00
2017-05-18T10:16:17.175Z,26.00
2017-05-18T10:18:43.906Z,25.90
2017-05-18T10:21:10.600Z,25.80
2017-05-18T10:23:37.399Z,25.70
2017-05-18T10:26:04.150Z,25.60
2017-05-18T10:28:30.835Z,25.50
2017-05-18T10:30:57.503Z,25.40
2017-05-18T10:33:24.195Z,25.30
2017-05-18T10:35:50.882Z,25.20
2017-05-18T10:38:17.603Z,25.00
2017-05-18T10:40:44.338Z,24.90
2017-05-18T10:43:11.000Z,24.90
2017-05-18T10:45:38.221Z,24.80
2017-05-18T10:48:04.912Z,24.70
2017-05-18T10:50:31.604Z,24.60
2017-05-18T10:52:58.320Z,24.50
2017-05-18T10:55:24.980Z,24.50
2017-05-18T10:57:51.642Z,24.50
2017-05-18T11:00:18.351Z,24.60
2017-05-18T11:02:45.094Z,24.70
2017-05-18T11:05:11.843Z,25.00
2017-05-18T11:07:38.568Z,25.20
2017-05-18T11:10:06.027Z,25.30
2017-05-18T11:12:33.771Z,25.20
2017-05-18T11:15:01.290Z,25.30
2017-05-18T11:17:28.008Z,25.30
2017-05-18T11:19:54.692Z,25.30
2017-05-18T11:22:21.693Z,25.30
2017-05-18T11:24:48.433Z,25.20
2017-05-18T11:27:15.099Z,25.10
2017-05-18T11:29:42.559Z,25.00
2017-05-18T11:32:10.008Z,24.80
2017-05-18T11:34:37.447Z,24.70
2017-05-18T11:37:04.113Z,24.60
2017-05-18T11:39:30.950Z,24.40
2017-05-18T11:41:57.638Z,24.30
2017-05-18T11:44:24.354Z,24.10
2017-05-18T11:46:51.023Z,24.00
2017-05-18T11:49:17.814Z,24.00
2017-05-18T11:51:44.485Z,24.00
2017-05-18T11:54:11.179Z,23.90
2017-05-18T11:56:37.903Z,23.90
2017-05-18T11:59:04.571Z,23.90
2017-05-18T12:01:31.408Z,23.80
2017-05-18T12:03:58.096Z,23.70
2017-05-18T12:06:24.792Z,23.70
2017-05-18T12:08:51.514Z,23.80
2017-05-18T12:11:18.244Z,23.90
2017-05-18T12:13:45.710Z,23.90
2017-05-18T12:16:12.635Z,23.90
2017-05-18T12:18:39.346Z,23.90
2017-05-18T12:21:06.023Z,23.90
2017-05-18T12:23:32.824Z,24.00
2017-05-18T12:25:59.501Z,24.10
2017-05-18T12:28:26.194Z,24.20
2017-05-18T12:30:53.065Z,24.30
2017-05-18T12:33:19.755Z,24.50
2017-05-18T12:35:46.445Z,24.50
2017-05-18T12:38:13.156Z,24.60
2017-05-18T12:40:39.845Z,24.70
2017-05-18T12:43:06.751Z,24.80
2017-05-18T12:45:34.251Z,24.70
2017-05-18T12:48:03.443Z,24.70
2017-05-18T12:50:30.292Z,24.60
2017-05-18T12:52:57.028Z,24.60
2017-05-18T12:55:23.760Z,24.50
2017-05-18T12:57:50.508Z,24.50
2017-05-18T13:00:17.347Z,24.50
2017-05-18T13:02:44.017Z,24.40
2017-05-18T13:05:10.697Z,24.30
2017-05-18T13:07:37.421Z,24.20
2017-05-18T13:10:04.144Z,24.10
2017-05-18T13:12:30.839Z,24.00
2017-05-18T13:14:57.508Z,23.90
2017-05-18T13:17:24.203Z,23.80
2017-05-18T13:19:51.648Z,23.70
2017-05-18T13:22:18.355Z,23.70
2017-05-18T13:24:45.055Z,23.70
2017-05-18T13:27:11.795Z,23.70
2017-05-18T13:29:38.481Z,23.70
2017-05-18T13:32:05.144Z,23.70
2017-05-18T13:34:31.807Z,23.70
2017-05-18T13:36:58.499Z,23.80
2017-05-18T13:39:25.181Z,24.00
2017-05-18T13:41:51.881Z,24.20
2017-05-18T13:44:18.603Z,24.30
2017-05-18T13:46:45.286Z,24.50
2017-05-18T13:49:11.953Z,24.50
2017-05-18T13:51:38.806Z,24.60
2017-05-18T13:54:05.491Z,24.80
2017-05-18T13:56:32.247Z,25.10
2017-05-18T13:58:58.976Z,25.60
2017-05-18T14:01:27.120Z,26.30
2017-05-18T14:03:53.797Z,27.40
2017-05-18T14:06:20.508Z,28.20
2017-05-18T14:08:47.193Z,28.70
2017-05-18T14:11:13.881Z,29.20
2017-05-18T14:13:40.611Z,29.60
2017-05-18T14:16:07.289Z,29.80
2017-05-18T14:18:34.075Z,30.00
2017-05-18T14:21:00.758Z,30.20
2017-05-18T14:23:27.444Z,30.40
2017-05-18T14:25:54.213Z,30.60
2017-05-18T14:28:20.888Z,30.60
2017-05-18T14:30:47.558Z,30.70
2017-05-18T14:33:14.272Z,30.60
2017-05-18T14:35:42.035Z,30.50
2017-05-18T14:38:08.724Z,30.20
2017-05-18T14:40:35.457Z,29.90
2017-05-18T14:43:02.211Z,29.60
2017-05-18T14:45:28.953Z,29.50
2017-05-18T14:47:56.380Z,29.40
2017-05-18T14:50:23.062Z,29.60
2017-05-18T14:52:49.761Z,30.00
2017-05-18T14:55:16.499Z,30.70
2017-05-18T14:57:43.182Z,31.90
2017-05-18T15:00:09.984Z,32.70
2017-05-18T15:02:36.660Z,32.90
2017-05-18T15:05:03.326Z,33.30
2017-05-18T15:07:30.031Z,34.00
2017-05-18T15:09:57.456Z,34.50
2017-05-18T15:12:24.145Z,35.10
2017-05-18T15:14:50.828Z,35.80
2017-05-18T15:17:17.505Z,36.20
2017-05-18T15:19:44.215Z,36.20
2017-05-18T15:22:10.887Z,36.20
2017-05-18T15:24:37.592Z,36.30
2017-05-18T15:27:04.312Z,36.40
2017-05-18T15:29:31.279Z,36.30
2017-05-18T15:31:58.020Z,36.00
2017-05-18T15:34:24.698Z,35.60
2017-05-18T15:36:51.434Z,35.40
2017-05-18T15:39:19.488Z,35.10
2017-05-18T15:41:46.195Z,34.30
2017-05-18T15:44:12.936Z,33.30
2017-05-18T15:46:39.708Z,32.80
2017-05-18T15:49:07.109Z,32.90
2017-05-18T15:51:33.916Z,33.20
2017-05-18T15:54:01.587Z,33.50
2017-05-18T15:56:28.262Z,33.40
2017-05-18T15:58:55.057Z,33.80
2017-05-18T16:01:21.778Z,34.10
2017-05-18T16:03:48.530Z,34.20
2017-05-18T16:06:15.211Z,34.20
2017-05-18T16:08:41.952Z,33.80
2017-05-18T16:11:08.660Z,33.20
2017-05-18T16:13:35.347Z,32.60
2017-05-18T16:16:02.296Z,31.90
2017-05-18T16:18:29.011Z,31.30
2017-05-18T16:20:55.719Z,30.70
2017-05-18T16:23:22.688Z,30.20
2017-05-18T16:25:49.379Z,29.70
2017-05-18T16:28:16.080Z,29.30
2017-05-18T16:30:42.758Z,29.00
2017-05-18T16:33:09.596Z,28.70
2017-05-18T16:35:36.401Z,28.50
2017-05-18T16:38:03.079Z,28.20
2017-05-18T16:40:30.508Z,27.80
2017-05-18T16:42:57.217Z,27.80
2017-05-18T16:45:23.915Z,27.80
2017-05-18T16:47:51.342Z,27.70
2017-05-18T16:50:18.073Z,27.80
2017-05-18T16:52:44.752Z,27.70
2017-05-18T16:55:13.170Z,27.60
2017-05-18T16:57:40.496Z,27.50
2017-05-18T17:00:07.266Z,27.30
2017-05-18T17:02:34.029Z,27.30
2017-05-18T17:05:00.745Z,27.20
2017-05-18T17:07:27.474Z,27.10
2017-05-18T17:09:54.989Z,27.00
2017-05-18T17:12:21.747Z,26.70
2017-05-18T17:14:48.416Z,26.90
2017-05-18T17:17:15.132Z,26.80
2017-05-18T17:19:41.886Z,26.70
2017-05-18T17:22:08.602Z,26.60
2017-05-18T17:24:35.275Z,26.50
2017-05-18T17:27:01.950Z,26.60
2017-05-18T17:29:28.603Z,26.60
2017-05-18T17:31:56.090Z,26.60
2017-05-18T17:34:22.909Z,26.70
2017-05-18T17:36:49.615Z,26.70
2017-05-18T17:39:16.358Z,26.60
2017-05-18T17:41:43.082Z,26.60
2017-05-18T17:44:10.568Z,26.50
2017-05-18T17:46:37.281Z,26.40
2017-05-18T17:49:04.085Z,26.30
2017-05-18T17:51:30.812Z,26.30
2017-05-18T17:53:57.535Z,26.10
2017-05-18T17:56:24.248Z,25.90
2017-05-18T17:58:51.051Z,25.80
2017-05-18T18:01:17.751Z,25.70
2017-05-18T18:03:45.335Z,25.70
2017-05-18T18:06:12.062Z,25.70
2017-05-18T18:08:38.808Z,25.70
2017-05-18T18:11:05.522Z,25.70
2017-05-18T18:13:32.245Z,25.70
2017-05-18T18:15:59.711Z,25.70
2017-05-18T18:18:27.166Z,25.70
2017-05-18T18:20:54.034Z,25.80
2017-05-18T18:23:20.708Z,25.80
2017-05-18T18:25:47.443Z,25.80
2017-05-18T18:28:14.208Z,25.80
2017-05-18T18:30:40.930Z,25.80
2017-05-18T18:33:08.277Z,25.80
2017-05-18T18:35:35.137Z,25.80
2017-05-18T18:38:02.120Z,25.90
2017-05-18T18:40:28.958Z,26.00
2017-05-18T18:42:56.098Z,26.00
2017-05-18T18:45:22.924Z,26.00
2017-05-18T18:47:51.180Z,26.00
2017-05-18T18:50:17.923Z,26.00
2017-05-18T18:52:45.518Z,25.90
2017-05-18T18:55:12.590Z,25.90
2017-05-18T18:57:40.952Z,25.80
2017-05-18T19:00:08.202Z,25.70
2017-05-18T19:02:35.878Z,25.50
2017-05-18T19:05:04.100Z,25.30
2017-05-18T19:07:30.825Z,25.20
2017-05-18T19:09:57.566Z,25.10
2017-05-18T19:12:24.389Z,25.00
2017-05-18T19:14:51.295Z,24.90
2017-05-18T19:17:17.974Z,24.90
2017-05-18T19:19:44.748Z,24.80
2017-05-18T19:22:12.234Z,24.80
2017-05-18T19:24:38.914Z,24.80
2017-05-18T19:27:11.402Z,24.70
2017-05-18T19:29:40.553Z,24.70
2017-05-18T19:32:07.429Z,24.60
2017-05-18T19:34:34.704Z,24.60
2017-05-18T19:37:01.476Z,24.50
2017-05-18T19:39:28.421Z,24.50
2017-05-18T19:41:55.912Z,24.30
2017-05-18T19:44:22.633Z,24.30
2017-05-18T19:46:50.199Z,24.20
2017-05-18T19:49:16.889Z,24.10
2017-05-18T19:51:44.629Z,24.10
2017-05-18T19:54:11.447Z,24.00
2017-05-18T19:56:38.301Z,23.90
2017-05-18T19:59:05.100Z,23.90
2017-05-18T20:01:33.186Z,23.90
2017-05-18T20:03:59.920Z,23.80
2017-05-18T20:06:27.666Z,23.70
2017-05-18T20:08:55.403Z,23.60
2017-05-18T20:11:24.310Z,23.60
2017-05-18T20:13:52.688Z,23.50
2017-05-18T20:16:19.539Z,23.40
2017-05-18T20:18:46.545Z,23.30
2017-05-18T20:21:13.602Z,23.20
2017-05-18T20:23:40.398Z,23.10
2017-05-18T20:26:07.925Z,23.00
2017-05-18T20:28:34.650Z,22.90
2017-05-18T20:31:02.283Z,22.80
2017-05-18T20:33:30.051Z,22.80
2017-05-18T20:35:57.229Z,22.80
2017-05-18T20:38:23.977Z,22.80
2017-05-18T20:40:51.422Z,22.80
2017-05-18T20:43:19.006Z,22.70
2017-05-18T20:45:47.845Z,22.70
2017-05-18T20:48:19.192Z,22.70
2017-05-18T20:50:49.095Z,22.70
2017-05-18T20:53:16.211Z,22.70
2017-05-18T20:55:42.947Z,22.60
2017-05-18T20:58:09.675Z,22.40
2017-05-18T21:00:37.883Z,22.30
2017-05-18T21:03:21.803Z,22.30
2017-05-18T21:05:48.587Z,22.20
2017-05-18T21:08:15.375Z,22.20
2017-05-18T21:10:42.092Z,22.10
2017-05-18T21:13:09.695Z,22.00
2017-05-18T21:15:39.311Z,22.00
2017-05-18T21:18:06.103Z,22.00
2017-05-18T21:20:33.592Z,21.80
2017-05-18T21:23:01.627Z,21.90
2017-05-18T21:25:29.238Z,21.80
2017-05-18T21:27:57.773Z,21.80
2017-05-18T21:30:24.529Z,21.80
2017-05-18T21:32:51.369Z,21.80
2017-05-18T21:35:19.621Z,21.70
2017-05-18T21:37:46.297Z,21.80
2017-05-18T21:40:13.009Z,21.80
2017-05-18T21:42:40.277Z,21.80
2017-05-18T21:45:06.989Z,21.80
2017-05-18T21:47:35.888Z,21.60
2017-05-18T21:50:02.752Z,21.60
2017-05-18T21:52:29.584Z,21.50
2017-05-18T21:54:56.641Z,21.50
2017-05-18T21:57:23.415Z,21.40
2017-05-18T21:59:50.153Z,21.40
2017-05-18T22:02:16.936Z,21.40
2017-05-18T22:04:43.624Z,21.40
2017-05-18T22:07:10.429Z,21.40
2017-05-18T22:09:37.864Z,21.30
2017-05-18T22:12:05.356Z,21.30
2017-05-18T22:14:32.061Z,21.30
2017-05-18T22:16:59.499Z,21.30
2017-05-18T22:19:26.217Z,21.30
2017-05-18T22:21:52.934Z,21.30
2017-05-18T22:24:19.646Z,21.30
2017-05-18T22:26:47.092Z,21.20
2017-05-18T22:29:14.555Z,21.20
2017-05-18T22:31:42.120Z,21.10
2017-05-18T22:34:08.793Z,21.00
2017-05-18T22:36:35.497Z,21.00
2017-05-18T22:39:02.204Z,20.90
2017-05-18T22:41:28.906Z,20.80
2017-05-18T22:43:55.625Z,20.70
2017-05-18T22:46:22.331Z,20.70
2017-05-18T22:48:49.029Z,20.70
2017-05-18T22:51:15.748Z,20.70
2017-05-18T22:53:42.440Z,20.70
2017-05-18T22:56:09.165Z,20.70
2017-05-18T22:58:35.907Z,20.60
2017-05-18T23:01:02.715Z,20.60
2017-05-18T23:03:29.456Z,20.60
2017-05-18T23:05:56.209Z,20.60
2017-05-18T23:08:22.925Z,20.70
2017-05-18T23:10:49.648Z,20.70
2017-05-18T23:13:16.394Z,20.70
2017-05-18T23:15:43.069Z,20.70
2017-05-18T23:18:09.758Z,20.70
2017-05-18T23:20:36.425Z,20.70
2017-05-18T23:23:03.124Z,20.70
2017-05-18T23:25:29.779Z,20.70
2017-05-18T23:27:57.098Z,20.70
2017-05-18T23:30:23.820Z,20.60
2017-05-18T23:32:50.507Z,20.60
2017-05-18T23:35:17.216Z,20.60
2017-05-18T23:37:43.919Z,20.70
2017-05-18T23:40:10.660Z,20.70
2017-05-18T23:42:37.377Z,20.70
2017-05-18T23:45:04.092Z,20.70
2017-05-18T23:47:30.782Z,20.70
2017-05-18T23:49:57.472Z,20.70
2017-05-18T23:52:24.215Z,20.80
2017-05-18T23:54:50.897Z,20.80
2017-05-18T23:57:17.601Z,20.80
2017-05-18T23:59:44.276Z,20.70
